Lester, Alabama
Current Conditions -  °F | °C
As of 2:53 PM on Tuesday 21 Oct 2014 (Local Time) from KDCU Reporting Station
Clear Clear  
Wind Chill: 74°   Ceiling: Unl
Heat Index: 74°   Visibility: 10mi
Dew Point: 45°   Wind: 8mph
Humidity: 35%   Direction: 320°NW
Pressure: 30.02"   Gusts: 17mph
Location:  34.99°N, 87.15°W
Report Text: KDCU 211953Z AUTO 32007G15KT 10SM CLR 23/07 A3002 RMK AO2 SLP162 T02330072
Loading
Personal Weather Stations






























Interactive Weather Map
Tropical Storm Tracking
New forecast layout! Learn more

10-Day Weather Forecast

Advertisements
Track Severe Weather on mobile